Time;durP1;ratioP1;P1;durP2;ratioP2;P2;SDS_P1;SDS_P2;PMS_P1;PMS_P2;Temp;Humidity;BMP_temperature;BMP_pressure;BME280_temperature;BME280_humidity;BME280_pressure;Samples;Min_cycle;Max_cycle;Signal;HPM_P1;HPM_P2
2021/10/25 00:00:11;;;;;;;;;;;;;;;18.77;68.57;102615.94;4994543;28;1866;-40
2021/10/25 00:02:52;;;;;;;;;;;;;;;18.81;67.47;102628.22;4993869;28;1547;-41
2021/10/25 00:05:18;;;;;;;;;;;;;;;18.76;67.96;102625.81;4993424;28;1714;-41
2021/10/25 00:07:47;;;;;;;;;;;;;;;18.74;68.48;102616.97;4989614;28;1702;-41
2021/10/25 00:10:19;;;;;;;;;;;;;;;18.79;68.04;102614.03;4991258;28;2370;-41
2021/10/25 00:12:46;;;;;;;;;;;;;;;18.76;67.83;102608.81;4991154;28;1638;-41
2021/10/25 00:15:13;;;;;;;;;;;;;;;18.72;67.82;102615.31;4991283;28;1980;-40
2021/10/25 00:17:42;;;;;;;;;;;;;;;18.74;67.39;102619.66;4992567;28;1622;-41
2021/10/25 00:20:09;;;;;;;;;;;;;;;18.77;67.35;102624.81;4993609;28;1569;-41
2021/10/25 00:22:37;;;;;;;;;;;;;;;18.74;67.34;102618.78;4993093;28;1690;-41
2021/10/25 00:25:05;;;;;;;;;;;;;;;18.73;67.86;102617.91;4987048;28;1606;-41
2021/10/25 00:27:38;;;;;;;;;;;;;;;18.72;68.12;102612.63;4994091;28;1882;-41
2021/10/25 00:30:08;;;;;;;;;;;;;;;18.73;67.62;102619.75;4990037;28;2005;-40
2021/10/25 00:32:42;;;;;;;;;;;;;;;18.74;67.26;102624.13;4990138;28;1657;-41
2021/10/25 00:35:12;;;;;;;;;;;;;;;18.71;68.32;102624.34;4991319;28;1544;-41
2021/10/25 00:37:43;;;;;;;;;;;;;;;18.74;67.48;102632.19;4994005;28;1545;-40
2021/10/25 00:40:14;;;;;;;;;;;;;;;18.74;67.15;102629.50;4990758;28;1750;-41
2021/10/25 00:42:45;;;;;;;;;;;;;;;18.77;67.05;102626.66;4990006;28;1800;-41
2021/10/25 00:45:12;;;;;;;;;;;;;;;18.69;68.15;102617.22;4988728;28;1672;-42
2021/10/25 00:47:39;;;;;;;;;;;;;;;18.75;67.24;102628.56;4987026;28;1734;-41
2021/10/25 00:50:06;;;;;;;;;;;;;;;18.71;67.50;102622.50;4993595;28;1973;-41
2021/10/25 00:52:36;;;;;;;;;;;;;;;18.70;67.73;102620.75;4994759;28;1718;-41
2021/10/25 00:55:04;;;;;;;;;;;;;;;18.73;66.97;102633.16;4993982;28;2018;-40
2021/10/25 00:57:32;;;;;;;;;;;;;;;18.68;67.36;102617.31;4988831;28;1500;-41
2021/10/25 01:00:04;;;;;;;;;;;;;;;18.67;67.96;102618.28;4992430;28;1758;-41
2021/10/25 01:02:30;;;;;;;;;;;;;;;18.70;67.08;102628.81;4992048;28;1804;-41
2021/10/25 01:04:59;;;;;;;;;;;;;;;18.72;67.49;102628.72;4980318;28;1640;-41
2021/10/25 01:07:26;;;;;;;;;;;;;;;18.65;67.99;102621.03;4989039;28;1718;-41
2021/10/25 01:09:56;;;;;;;;;;;;;;;18.68;67.98;102625.34;4989597;28;1898;-41
2021/10/25 01:12:23;;;;;;;;;;;;;;;18.68;66.96;102620.88;4993040;28;1456;-41
2021/10/25 01:14:49;;;;;;;;;;;;;;;18.64;67.02;102613.06;4987482;28;1568;-41
2021/10/25 01:17:22;;;;;;;;;;;;;;;18.66;66.92;102617.41;4988982;28;2030;-40
2021/10/25 01:19:59;;;;;;;;;;;;;;;18.66;67.70;102624.56;4991920;28;1914;-41
2021/10/25 01:22:29;;;;;;;;;;;;;;;18.63;67.35;102612.22;4987624;28;1560;-40
2021/10/25 01:24:56;;;;;;;;;;;;;;;18.65;66.74;102617.50;4989052;28;1622;-41
2021/10/25 01:27:23;;;;;;;;;;;;;;;18.66;66.63;102609.38;4992195;28;1683;-40
2021/10/25 01:29:50;;;;;;;;;;;;;;;18.63;67.67;102601.50;4992154;28;1966;-41
2021/10/25 01:32:18;;;;;;;;;;;;;;;18.62;66.43;102605.16;4988164;28;1666;-40
2021/10/25 01:34:59;;;;;;;;;;;;;;;18.61;66.29;102598.06;4993214;28;1634;-41
2021/10/25 01:37:31;;;;;;;;;;;;;;;18.61;66.38;102608.78;4993505;28;1653;-41
2021/10/25 01:39:58;;;;;;;;;;;;;;;18.64;67.43;102613.06;4988990;28;2292;-41
2021/10/25 01:42:25;;;;;;;;;;;;;;;18.61;66.49;102610.59;4990678;28;1681;-40
2021/10/25 01:44:52;;;;;;;;;;;;;;;18.62;66.28;102605.16;4985286;28;1572;-41
2021/10/25 01:47:20;;;;;;;;;;;;;;;18.63;67.36;102619.41;4989093;28;1775;-41
2021/10/25 01:49:48;;;;;;;;;;;;;;;18.64;66.99;102615.75;4995123;28;1914;-41
2021/10/25 01:52:15;;;;;;;;;;;;;;;18.63;67.03;102612.22;4988811;28;1513;-41
2021/10/25 01:54:48;;;;;;;;;;;;;;;18.60;66.81;102617.78;4990998;28;1558;-40
2021/10/25 01:57:35;;;;;;;;;;;;;;;18.57;67.16;102617.94;4991306;28;1606;-41
2021/10/25 02:02:41;;;;;;;;;;;;;;;18.61;66.82;102626.66;5001990;28;1619;-49
2021/10/25 02:05:07;;;;;;;;;;;;;;;18.83;65.75;102623.66;5011391;28;1761;-63
2021/10/25 02:07:34;;;;;;;;;;;;;;;19.04;65.33;102614.34;5013335;28;1421;-63
2021/10/25 02:10:02;;;;;;;;;;;;;;;19.32;64.21;102623.44;5011812;28;1906;-63
2021/10/25 02:12:29;;;;;;;;;;;;;;;19.20;65.84;102618.78;5006067;28;1449;-48
2021/10/25 02:14:55;;;;;;;;;;;;;;;18.96;65.71;102605.91;5005567;28;1704;-50
2021/10/25 02:17:22;;;;;;;;;;;;;;;19.13;65.47;102612.06;5012930;28;1492;-49
2021/10/25 02:19:50;;;;;;;;;;;;;;;19.25;64.31;102622.91;5012244;28;1474;-49
2021/10/25 02:22:17;;;;;;;;;;;;;;;19.33;64.89;102608.19;5013557;28;1597;-63
2021/10/25 02:24:44;;;;;;;;;;;;;;;19.33;64.74;102627.81;5012873;28;1401;-63
2021/10/25 02:27:12;;;;;;;;;;;;;;;19.34;65.09;102610.78;5005655;28;1608;-52
2021/10/25 02:29:39;;;;;;;;;;;;;;;19.37;65.29;102626.69;5012413;28;1995;-51
2021/10/25 02:32:06;;;;;;;;;;;;;;;19.38;64.33;102611.47;5008607;28;1374;-63
2021/10/25 02:34:33;;;;;;;;;;;;;;;19.35;65.36;102617.88;5003735;28;1585;-49
2021/10/25 02:37:00;;;;;;;;;;;;;;;19.40;64.27;102636.38;4999478;28;1589;-63
2021/10/25 02:39:27;;;;;;;;;;;;;;;19.42;64.71;102621.06;5007397;28;1532;-63
2021/10/25 02:41:54;;;;;;;;;;;;;;;19.39;64.02;102632.81;5008143;28;1560;-49
2021/10/25 02:44:22;;;;;;;;;;;;;;;19.40;64.70;102644.44;5011207;28;1650;-63
2021/10/25 02:46:49;;;;;;;;;;;;;;;19.46;63.71;102647.59;5003054;28;1461;-63
2021/10/25 02:49:16;;;;;;;;;;;;;;;19.47;64.83;102638.56;5009614;28;1972;-63
2021/10/25 02:51:42;;;;;;;;;;;;;;;19.48;63.97;102628.72;5008667;28;1552;-63
2021/10/25 02:54:09;;;;;;;;;;;;;;;19.45;64.91;102635.13;5001983;28;1525;-63
2021/10/25 02:56:36;;;;;;;;;;;;;;;19.51;64.22;102633.91;5011445;28;1517;-63
2021/10/25 02:59:02;;;;;;;;;;;;;;;19.54;64.32;102640.91;5011910;28;1525;-59
2021/10/25 03:01:30;;;;;;;;;;;;;;;19.54;64.25;102643.59;5008188;28;1497;-62
2021/10/25 03:03:57;;;;;;;;;;;;;;;19.53;64.03;102631.97;5007394;28;1503;-62
2021/10/25 03:06:23;;;;;;;;;;;;;;;19.54;64.70;102643.59;5012622;28;1522;-50
2021/10/25 03:08:50;;;;;;;;;;;;;;;19.53;64.44;102637.34;5012445;28;1560;-63
2021/10/25 03:11:17;;;;;;;;;;;;;;;19.53;64.26;102628.44;5007621;28;1902;-62
2021/10/25 03:13:43;;;;;;;;;;;;;;;19.57;63.93;102624.63;5000149;28;1537;-63
2021/10/25 03:16:11;;;;;;;;;;;;;;;19.53;63.30;102626.63;5010540;28;1589;-49
2021/10/25 03:18:39;;;;;;;;;;;;;;;19.58;64.00;102629.91;5013359;28;1363;-63
2021/10/25 03:21:05;;;;;;;;;;;;;;;19.53;63.34;102625.75;5008899;28;1450;-49
2021/10/25 03:23:34;;;;;;;;;;;;;;;19.60;64.41;102622.63;5011245;28;2001;-49
2021/10/25 03:26:01;;;;;;;;;;;;;;;19.55;63.20;102627.38;5002544;28;1578;-49
2021/10/25 03:28:27;;;;;;;;;;;;;;;19.59;64.30;102628.06;4997744;28;1494;-63
2021/10/25 03:30:54;;;;;;;;;;;;;;;19.63;64.18;102643.03;5008306;28;1981;-51
2021/10/25 03:33:21;;;;;;;;;;;;;;;19.61;63.21;102644.94;5000226;28;1558;-63
2021/10/25 03:35:49;;;;;;;;;;;;;;;19.59;64.02;102642.34;5007007;28;1529;-63
2021/10/25 03:38:16;;;;;;;;;;;;;;;19.63;63.40;102651.94;5004789;28;1623;-63
2021/10/25 03:40:46;;;;;;;;;;;;;;;19.65;64.04;102641.97;5000446;28;1350;-48
2021/10/25 03:43:13;;;;;;;;;;;;;;;19.45;64.15;102624.41;5003162;28;1693;-63
2021/10/25 03:45:45;;;;;;;;;;;;;;;19.31;65.08;102643.16;5007359;28;1560;-58
2021/10/25 03:48:19;;;;;;;;;;;;;;;19.26;64.04;102637.22;4968458;28;11018;-63
2021/10/25 03:50:48;;;;;;;;;;;;;;;19.27;63.11;102641.59;4998399;28;1911;-62
2021/10/25 03:53:21;;;;;;;;;;;;;;;19.03;60.45;102641.25;5009117;28;1414;-50
2021/10/25 03:55:54;;;;;;;;;;;;;;;18.99;62.31;102637.88;5008179;28;1480;-51
2021/10/25 03:58:57;;;;;;;;;;;;;;;18.93;63.99;102643.59;5008480;28;1268;-49
2021/10/25 04:26:26;;;;;;;;;;;;;;;19.00;64.60;102634.25;5001730;28;1374;-51
2021/10/25 04:28:53;;;;;;;;;;;;;;;19.25;63.87;102627.44;5004108;28;1549;-51
2021/10/25 04:31:20;;;;;;;;;;;;;;;19.21;65.08;102644.66;5004745;28;2100;-59
2021/10/25 04:33:46;;;;;;;;;;;;;;;19.11;64.51;102638.13;5009353;28;1418;-67
2021/10/25 04:36:13;;;;;;;;;;;;;;;19.23;65.09;102637.38;5007436;28;1347;-50
2021/10/25 04:38:39;;;;;;;;;;;;;;;19.42;65.50;102640.69;5008347;28;1688;-50
2021/10/25 04:41:06;;;;;;;;;;;;;;;19.56;65.01;102644.38;5003055;28;1723;-63
2021/10/25 04:43:34;;;;;;;;;;;;;;;19.45;65.42;102640.50;5008429;28;2019;-51
2021/10/25 04:46:01;;;;;;;;;;;;;;;19.25;65.02;102648.88;5009218;28;1668;-52
2021/10/25 04:48:28;;;;;;;;;;;;;;;19.25;64.96;102646.19;5009232;28;1667;-62
2021/10/25 04:50:54;;;;;;;;;;;;;;;19.37;65.22;102648.16;5007818;28;1899;-50
2021/10/25 04:53:21;;;;;;;;;;;;;;;19.40;65.66;102653.34;5009160;28;1437;-66
2021/10/25 04:55:47;;;;;;;;;;;;;;;19.45;65.53;102635.13;5008671;28;1422;-51
2021/10/25 04:58:14;;;;;;;;;;;;;;;19.44;64.98;102644.16;5008209;28;1256;-65
2021/10/25 05:00:43;;;;;;;;;;;;;;;19.46;64.45;102642.22;5001134;28;1480;-62
2021/10/25 05:03:10;;;;;;;;;;;;;;;19.44;65.67;102654.03;5006611;28;1689;-54
2021/10/25 05:05:37;;;;;;;;;;;;;;;19.45;65.79;102653.06;5002593;28;1525;-55
2021/10/25 05:08:03;;;;;;;;;;;;;;;19.42;64.79;102659.47;5012409;28;1263;-57
2021/10/25 05:10:30;;;;;;;;;;;;;;;19.47;65.38;102670.78;5004968;28;1983;-61
2021/10/25 05:12:56;;;;;;;;;;;;;;;19.51;65.64;102665.25;5009468;28;1701;-51
2021/10/25 05:15:23;;;;;;;;;;;;;;;19.47;64.89;102662.72;5001770;28;1486;-54
2021/10/25 05:17:51;;;;;;;;;;;;;;;19.53;65.48;102664.19;5009054;28;1419;-61
2021/10/25 05:20:18;;;;;;;;;;;;;;;19.52;64.62;102686.63;5009373;28;1453;-52
2021/10/25 05:22:44;;;;;;;;;;;;;;;19.54;64.34;102681.16;5011139;28;1256;-58
2021/10/25 05:25:11;;;;;;;;;;;;;;;19.47;65.18;102670.78;5009320;28;1489;-54
2021/10/25 05:27:38;;;;;;;;;;;;;;;19.36;64.72;102689.34;5008659;28;1522;-53
2021/10/25 05:30:05;;;;;;;;;;;;;;;19.44;65.80;102687.09;5002139;28;1987;-53
2021/10/25 05:32:31;;;;;;;;;;;;;;;19.56;65.38;102684.63;5006158;28;1380;-52
2021/10/25 05:34:59;;;;;;;;;;;;;;;19.72;65.25;102680.06;5009353;28;1611;-65
2021/10/25 05:37:26;;;;;;;;;;;;;;;19.70;64.61;102692.69;5008731;28;1369;-67
2021/10/25 05:39:55;;;;;;;;;;;;;;;19.54;64.62;102691.91;5004822;28;1509;-69
2021/10/25 05:42:22;;;;;;;;;;;;;;;19.42;66.02;102689.00;5004264;28;1548;-53
2021/10/25 05:44:48;;;;;;;;;;;;;;;19.52;65.01;102689.31;5005224;28;1552;-63
2021/10/25 05:47:15;;;;;;;;;;;;;;;19.81;64.59;102679.50;5006276;28;1259;-65
2021/10/25 05:49:41;;;;;;;;;;;;;;;19.80;64.58;102696.56;5010334;28;1886;-65
2021/10/25 05:52:10;;;;;;;;;;;;;;;19.61;65.93;102691.41;5001933;28;1370;-52
2021/10/25 05:54:36;;;;;;;;;;;;;;;19.72;65.74;102700.69;5008043;28;1555;-62
2021/10/25 05:57:03;;;;;;;;;;;;;;;19.66;65.59;102691.16;5008993;28;1524;-53
2021/10/25 05:59:33;;;;;;;;;;;;;;;19.96;65.02;102706.38;5004391;28;1492;-67
2021/10/25 06:02:08;;;;;;;;;;;;;;;19.85;65.47;102701.66;4999884;28;1626;-69
2021/10/25 06:04:34;;;;;;;;;;;;;;;19.78;65.74;102703.88;5005908;28;1713;-50
2021/10/25 06:07:01;;;;;;;;;;;;;;;19.63;66.71;102710.97;5018106;28;1327;-64
2021/10/25 06:09:33;;;;;;;;;;;;;;;19.80;66.47;102712.69;5007281;28;1508;-66
2021/10/25 06:12:00;;;;;;;;;;;;;;;19.87;65.17;102710.47;5003730;28;1975;-69
2021/10/25 06:14:31;;;;;;;;;;;;;;;19.71;65.64;102715.91;5005091;28;1457;-50
2021/10/25 06:16:59;;;;;;;;;;;;;;;19.62;66.18;102709.25;5008014;28;1513;-64
2021/10/25 06:19:26;;;;;;;;;;;;;;;19.79;65.82;102712.78;5005875;28;1313;-67
2021/10/25 06:21:53;;;;;;;;;;;;;;;19.91;65.99;102716.53;5007678;28;1449;-68
2021/10/25 06:24:19;;;;;;;;;;;;;;;19.82;65.38;102734.94;5008736;28;1488;-50
2021/10/25 06:26:47;;;;;;;;;;;;;;;19.70;66.81;102719.53;5006666;28;1488;-51
2021/10/25 06:29:14;;;;;;;;;;;;;;;19.77;65.88;102739.69;5005481;28;1504;-68
2021/10/25 06:31:41;;;;;;;;;;;;;;;19.98;65.95;102724.13;5007326;28;1906;-51
2021/10/25 06:34:19;;;;;;;;;;;;;;;19.89;65.41;102734.56;5006996;28;1652;-52
2021/10/25 06:36:48;;;;;;;;;;;;;;;19.77;66.42;102723.59;5007175;28;1436;-50
2021/10/25 06:39:21;;;;;;;;;;;;;;;19.73;65.68;102724.75;5007172;28;1509;-50
2021/10/25 06:41:49;;;;;;;;;;;;;;;19.89;65.25;102739.94;5014754;28;1559;-67
2021/10/25 06:44:15;;;;;;;;;;;;;;;19.92;65.72;102729.00;5013355;28;1480;-51
2021/10/25 06:46:43;;;;;;;;;;;;;;;19.85;65.24;102732.03;5011118;28;1311;-67
2021/10/25 06:49:10;;;;;;;;;;;;;;;19.76;66.25;102719.19;5014657;28;1485;-50
2021/10/25 06:51:38;;;;;;;;;;;;;;;19.87;65.49;102721.22;5008721;28;1906;-68
2021/10/25 06:54:04;;;;;;;;;;;;;;;20.05;64.60;102724.59;5008015;28;1589;-68
2021/10/25 06:56:31;;;;;;;;;;;;;;;19.93;64.98;102720.84;5015089;28;1442;-50
2021/10/25 06:58:59;;;;;;;;;;;;;;;19.81;65.35;102727.81;5012759;28;1988;-68
2021/10/25 07:01:26;;;;;;;;;;;;;;;19.76;66.44;102724.56;5011265;28;1496;-50
2021/10/25 07:03:53;;;;;;;;;;;;;;;19.95;65.68;102718.06;5014264;28;1480;-51
2021/10/25 07:06:20;;;;;;;;;;;;;;;20.02;65.75;102731.03;5013020;28;1183;-67
2021/10/25 07:08:48;;;;;;;;;;;;;;;19.90;66.18;102699.56;5013552;28;1513;-68
2021/10/25 07:11:15;;;;;;;;;;;;;;;19.80;66.22;102720.75;5004552;28;1969;-51
2021/10/25 07:13:45;;;;;;;;;;;;;;;19.81;66.32;102710.84;5010081;28;1449;-68
2021/10/25 07:16:17;;;;;;;;;;;;;;;20.01;65.21;102709.63;5009484;28;1380;-49
2021/10/25 07:18:52;;;;;;;;;;;;;;;20.03;66.21;102711.28;5012529;28;1160;-50
2021/10/25 08:08:22;;;;;;;;;;;;;;;19.57;67.18;102687.19;5011330;28;1547;-64
2021/10/25 08:10:54;;;;;;;;;;;;;;;19.58;66.59;102698.81;5010719;28;1993;-63
2021/10/25 08:13:20;;;;;;;;;;;;;;;19.65;67.32;102700.16;5007096;28;1347;-68
2021/10/25 08:15:47;;;;;;;;;;;;;;;19.64;66.41;102698.44;5009227;28;1496;-48
2021/10/25 08:18:31;;;;;;;;;;;;;;;19.62;67.12;102695.84;5001511;28;1637;-73
2021/10/25 08:20:58;;;;;;;;;;;;;;;19.65;66.95;102692.09;5007879;28;1578;-63
2021/10/25 08:23:25;;;;;;;;;;;;;;;19.65;67.66;102689.41;5011466;28;1506;-66
2021/10/25 08:25:52;;;;;;;;;;;;;;;19.67;67.32;102692.88;5007802;28;1680;-63
2021/10/25 08:28:18;;;;;;;;;;;;;;;19.61;66.34;102687.88;5008306;28;1229;-63
2021/10/25 08:30:45;;;;;;;;;;;;;;;19.70;66.63;102690.00;5010451;28;1973;-61
2021/10/25 08:33:27;;;;;;;;;;;;;;;19.73;66.94;102695.22;5006275;28;1505;-55
2021/10/25 08:35:59;;;;;;;;;;;;;;;19.66;67.50;102675.91;5006226;28;1402;-61
2021/10/25 08:41:11;;;;;;;;;;;;;;;19.51;68.00;102684.88;5007557;28;1437;-60
2021/10/25 08:43:38;;;;;;;;;;;;;;;19.49;67.23;102694.84;5007148;28;1497;-60
2021/10/25 08:46:07;;;;;;;;;;;;;;;19.47;67.34;102684.19;5009367;28;1315;-60
2021/10/25 08:48:34;;;;;;;;;;;;;;;19.47;66.96;102686.88;5010977;28;1980;-60
2021/10/25 08:51:01;;;;;;;;;;;;;;;19.51;67.69;102692.94;5002001;28;1914;-48
2021/10/25 08:53:29;;;;;;;;;;;;;;;19.50;67.09;102696.59;5006423;28;1701;-60
2021/10/25 08:55:56;;;;;;;;;;;;;;;19.48;68.03;102672.53;5007408;28;1863;-61
2021/10/25 08:58:22;;;;;;;;;;;;;;;19.47;67.98;102681.50;5008547;28;1609;-48
2021/10/25 09:00:51;;;;;;;;;;;;;;;19.51;67.95;102673.28;5008869;28;1502;-60
2021/10/25 09:03:20;;;;;;;;;;;;;;;19.48;66.78;102677.88;5007546;28;1554;-60
2021/10/25 09:05:56;;;;;;;;;;;;;;;19.47;66.89;102676.16;5008519;28;1759;-48
2021/10/25 09:08:23;;;;;;;;;;;;;;;19.48;66.88;102683.25;5008914;28;1515;-48
2021/10/25 09:10:52;;;;;;;;;;;;;;;19.41;66.70;102671.16;5005834;28;1980;-60
2021/10/25 09:13:19;;;;;;;;;;;;;;;19.43;67.72;102690.69;5008463;28;1657;-49
2021/10/25 09:15:47;;;;;;;;;;;;;;;19.37;66.46;102674.13;5010363;28;1818;-60
2021/10/25 09:18:16;;;;;;;;;;;;;;;19.38;67.20;102674.03;5009768;28;1484;-60
2021/10/25 09:20:43;;;;;;;;;;;;;;;19.41;65.22;102687.25;5008260;28;1768;-49
2021/10/25 09:23:11;;;;;;;;;;;;;;;19.43;65.79;102689.84;5010289;28;1532;-48
2021/10/25 09:25:37;;;;;;;;;;;;;;;19.40;65.48;102679.31;5001871;28;1283;-58
2021/10/25 09:28:14;;;;;;;;;;;;;;;19.43;66.35;102666.56;5008705;28;1831;-60
2021/10/25 09:30:45;;;;;;;;;;;;;;;19.41;65.73;102687.25;5007748;28;1977;-56
2021/10/25 09:33:19;;;;;;;;;;;;;;;19.42;64.23;102674.72;5005041;28;1445;-59
2021/10/25 09:35:48;;;;;;;;;;;;;;;19.38;65.16;102668.66;5001378;28;1788;-48
2021/10/25 09:38:20;;;;;;;;;;;;;;;19.42;63.74;102667.53;5011463;28;1456;-48
2021/10/25 09:41:13;;;;;;;;;;;;;;;19.40;62.71;102663.22;5004337;28;1515;-60
2021/10/25 09:46:34;;;;;;;;;;;;;;;19.40;62.08;102653.34;5004528;28;1776;-50
2021/10/25 09:49:04;;;;;;;;;;;;;;;19.35;62.61;102655.41;5009613;28;1514;-49
2021/10/25 09:51:31;;;;;;;;;;;;;;;19.31;62.04;102645.84;5010115;28;1967;-60
2021/10/25 09:53:59;;;;;;;;;;;;;;;19.34;61.80;102642.97;5008830;28;1576;-48
2021/10/25 09:56:29;;;;;;;;;;;;;;;19.31;62.67;102642.28;5006225;28;1464;-48
2021/10/25 09:59:07;;;;;;;;;;;;;;;19.30;62.05;102641.44;5005177;28;1615;-48
2021/10/25 10:01:36;;;;;;;;;;;;;;;19.36;62.04;102630.34;5006793;28;1417;-48
2021/10/25 10:04:02;;;;;;;;;;;;;;;19.42;61.59;102632.66;5008653;28;1521;-59
2021/10/25 10:06:29;;;;;;;;;;;;;;;19.33;62.02;102627.81;5009418;28;1874;-59
2021/10/25 10:08:57;;;;;;;;;;;;;;;19.35;61.34;102625.91;5012733;28;1540;-49
2021/10/25 10:11:25;;;;;;;;;;;;;;;19.26;63.24;102627.34;5011111;28;1917;-48
2021/10/25 10:13:52;;;;;;;;;;;;;;;19.28;62.62;102614.69;5013504;28;1453;-61
2021/10/25 10:16:20;;;;;;;;;;;;;;;19.31;62.87;102615.47;5015703;28;1413;-47
2021/10/25 10:18:50;;;;;;;;;;;;;;;19.35;61.98;102611.66;5014334;28;1517;-49
2021/10/25 10:21:18;;;;;;;;;;;;;;;19.39;62.15;102597.09;5015173;28;1673;-52
2021/10/25 10:23:50;;;;;;;;;;;;;;;19.36;62.41;102608.88;5014116;28;1629;-60
2021/10/25 10:26:17;;;;;;;;;;;;;;;19.37;62.46;102596.31;5013548;28;1586;-62
2021/10/25 10:28:45;;;;;;;;;;;;;;;19.31;61.67;102600.22;5010664;28;1437;-50
2021/10/25 10:31:15;;;;;;;;;;;;;;;19.31;62.23;102599.38;5012465;28;1910;-64
2021/10/25 10:33:44;;;;;;;;;;;;;;;19.30;61.52;102593.16;5010298;28;1301;-49
2021/10/25 10:36:12;;;;;;;;;;;;;;;19.32;61.11;102591.25;5005288;28;2016;-66
2021/10/25 10:38:46;;;;;;;;;;;;;;;19.41;60.91;102585.28;5013603;28;1506;-57
2021/10/25 10:41:13;;;;;;;;;;;;;;;19.29;61.13;102575.31;5013790;28;1677;-50
2021/10/25 10:43:40;;;;;;;;;;;;;;;19.31;61.24;102568.03;5012813;28;1497;-63
2021/10/25 10:46:12;;;;;;;;;;;;;;;19.30;61.63;102565.44;5012904;28;1634;-62
2021/10/25 10:48:40;;;;;;;;;;;;;;;19.39;62.02;102557.69;5015000;28;1624;-52
2021/10/25 10:51:11;;;;;;;;;;;;;;;19.40;61.60;102563.94;5013425;28;1975;-50
2021/10/25 10:53:44;;;;;;;;;;;;;;;19.38;61.19;102566.72;5013082;28;1545;-60
2021/10/25 10:56:19;;;;;;;;;;;;;;;19.35;60.71;102542.75;5009999;28;1637;-49
2021/10/25 10:58:50;;;;;;;;;;;;;;;19.45;59.60;102551.09;5014532;28;1520;-50
2021/10/25 11:01:16;;;;;;;;;;;;;;;19.30;61.41;102550.25;5013962;28;1470;-49
2021/10/25 11:03:43;;;;;;;;;;;;;;;19.35;60.68;102542.75;5012268;28;1383;-51
2021/10/25 11:06:16;;;;;;;;;;;;;;;19.36;60.32;102539.13;5012898;28;1721;-49
2021/10/25 11:08:44;;;;;;;;;;;;;;;19.28;61.45;102530.69;5013126;28;1549;-50
2021/10/25 11:11:13;;;;;;;;;;;;;;;19.28;60.95;102525.34;5013595;28;1907;-49
2021/10/25 11:13:43;;;;;;;;;;;;;;;19.29;60.28;102532.41;5011152;28;1610;-50
2021/10/25 11:16:13;;;;;;;;;;;;;;;19.29;59.89;102524.34;5014537;28;1700;-51
2021/10/25 11:18:41;;;;;;;;;;;;;;;19.23;58.92;102516.69;5014516;28;1630;-52
2021/10/25 11:21:13;;;;;;;;;;;;;;;19.04;57.50;102512.47;5012570;28;1663;-50
2021/10/25 11:23:43;;;;;;;;;;;;;;;19.06;56.93;102498.97;5013519;28;1577;-62
2021/10/25 11:26:11;;;;;;;;;;;;;;;19.04;57.33;102501.75;5010822;28;1644;-51
2021/10/25 11:28:38;;;;;;;;;;;;;;;19.02;55.96;102500.09;5014362;28;1409;-51
2021/10/25 11:31:04;;;;;;;;;;;;;;;19.01;54.88;102507.28;5009831;28;1207;-62
2021/10/25 11:33:31;;;;;;;;;;;;;;;19.00;55.14;102516.28;5011985;28;1902;-61
2021/10/25 11:36:00;;;;;;;;;;;;;;;19.01;54.58;102496.53;5011456;28;1708;-49
2021/10/25 11:38:28;;;;;;;;;;;;;;;19.02;55.67;102492.94;5010766;28;1444;-62
2021/10/25 11:40:54;;;;;;;;;;;;;;;18.97;52.14;102500.38;5010088;28;1475;-60
2021/10/25 11:43:28;;;;;;;;;;;;;;;19.01;54.27;102493.00;5009256;28;1315;-57
2021/10/25 11:45:55;;;;;;;;;;;;;;;19.15;54.47;102484.13;5016227;28;1315;-57
2021/10/25 11:48:27;;;;;;;;;;;;;;;19.10;54.59;102496.94;5007293;28;1485;-47
2021/10/25 11:50:58;;;;;;;;;;;;;;;19.06;54.08;102488.25;5006979;28;1480;-62
2021/10/25 11:53:28;;;;;;;;;;;;;;;19.01;55.00;102475.09;5014896;28;1971;-62
2021/10/25 11:55:57;;;;;;;;;;;;;;;19.15;54.40;102476.06;5013754;28;1388;-51
2021/10/25 11:58:26;;;;;;;;;;;;;;;19.19;55.28;102481.16;5010176;28;1538;-73
2021/10/25 12:00:55;;;;;;;;;;;;;;;19.23;56.32;102479.13;5006996;28;1288;-50
2021/10/25 12:03:24;;;;;;;;;;;;;;;19.21;54.99;102467.66;5010757;28;1562;-50
2021/10/25 12:05:50;;;;;;;;;;;;;;;19.18;56.33;102465.13;5006074;28;1717;-50
2021/10/25 12:08:17;;;;;;;;;;;;;;;19.20;55.50;102479.31;5013318;28;1488;-58
2021/10/25 12:10:44;;;;;;;;;;;;;;;19.19;56.98;102473.09;5011561;28;1572;-48
2021/10/25 12:13:13;;;;;;;;;;;;;;;19.19;56.41;102456.16;5009422;28;2001;-62
2021/10/25 12:15:41;;;;;;;;;;;;;;;19.22;56.78;102466.72;5009540;28;1634;-61
2021/10/25 12:18:08;;;;;;;;;;;;;;;19.22;57.23;102453.28;5010786;28;1993;-52
2021/10/25 12:20:35;;;;;;;;;;;;;;;19.23;56.74;102471.09;5010270;28;1501;-52
2021/10/25 12:23:02;;;;;;;;;;;;;;;19.18;56.45;102465.13;5012825;28;1637;-61
2021/10/25 12:25:30;;;;;;;;;;;;;;;19.15;57.21;102458.16;5012474;28;1606;-61
2021/10/25 12:27:59;;;;;;;;;;;;;;;19.16;56.81;102461.69;5007342;28;1394;-52
2021/10/25 12:30:28;;;;;;;;;;;;;;;19.23;57.96;102469.28;5010123;28;1737;-54
2021/10/25 12:32:56;;;;;;;;;;;;;;;19.23;58.97;102453.19;5010693;28;1918;-54
2021/10/25 12:35:32;;;;;;;;;;;;;;;19.25;58.57;102451.25;5014007;28;1280;-49
2021/10/25 12:38:00;;;;;;;;;;;;;;;19.23;57.72;102452.31;5014847;28;1513;-62
2021/10/25 12:40:27;;;;;;;;;;;;;;;19.32;58.43;102453.56;5003982;28;1716;-62
2021/10/25 12:43:00;;;;;;;;;;;;;;;19.28;58.27;102455.59;5007404;28;1466;-48
2021/10/25 12:45:31;;;;;;;;;;;;;;;19.22;58.20;102450.63;5009936;28;1457;-48
2021/10/25 12:47:59;;;;;;;;;;;;;;;19.23;58.01;102468.41;5004790;28;1465;-49
2021/10/25 12:50:31;;;;;;;;;;;;;;;19.20;58.47;102447.13;5004701;28;1878;-57
2021/10/25 12:52:57;;;;;;;;;;;;;;;19.26;59.18;102446.78;5003715;28;1977;-63
2021/10/25 12:55:24;;;;;;;;;;;;;;;19.33;57.75;102440.06;5008108;28;1666;-57
2021/10/25 12:57:54;;;;;;;;;;;;;;;19.37;58.71;102446.94;5012238;28;1579;-58
2021/10/25 13:00:20;;;;;;;;;;;;;;;19.29;58.63;102441.22;5003727;28;1492;-50
2021/10/25 13:02:52;;;;;;;;;;;;;;;19.30;59.00;102453.69;5011678;28;1590;-50
2021/10/25 13:05:20;;;;;;;;;;;;;;;19.30;59.24;102432.22;5001687;28;1562;-47
2021/10/25 13:07:47;;;;;;;;;;;;;;;19.27;60.63;102445.81;5011748;28;1657;-64
2021/10/25 13:10:15;;;;;;;;;;;;;;;19.32;59.68;102438.34;5011046;28;1480;-67
2021/10/25 13:12:41;;;;;;;;;;;;;;;19.35;60.11;102448.88;5009994;28;1902;-48
2021/10/25 13:15:08;;;;;;;;;;;;;;;19.37;60.43;102440.72;5010120;28;1750;-62
2021/10/25 13:17:35;;;;;;;;;;;;;;;19.37;60.22;102441.56;5013283;28;1546;-47
2021/10/25 13:20:03;;;;;;;;;;;;;;;19.30;60.65;102425.97;5010449;28;1477;-49
2021/10/25 13:22:30;;;;;;;;;;;;;;;19.23;60.81;102426.34;5012438;28;1362;-50
2021/10/25 13:24:57;;;;;;;;;;;;;;;19.32;61.11;102427.63;5010754;28;1974;-55
2021/10/25 13:27:23;;;;;;;;;;;;;;;19.35;61.61;102435.44;5009837;28;1629;-59
2021/10/25 13:29:50;;;;;;;;;;;;;;;19.33;61.23;102432.00;5008704;28;1449;-51
2021/10/25 13:32:17;;;;;;;;;;;;;;;19.31;60.72;102417.81;5008999;28;1981;-59
2021/10/25 13:34:44;;;;;;;;;;;;;;;19.30;61.43;102429.53;5006681;28;1461;-59
2021/10/25 13:37:12;;;;;;;;;;;;;;;19.25;61.04;102421.75;5011805;28;1486;-59
2021/10/25 13:39:39;;;;;;;;;;;;;;;19.22;62.32;102418.44;5009388;28;1519;-60
2021/10/25 13:42:05;;;;;;;;;;;;;;;19.27;61.65;102424.34;5006321;28;1605;-48
2021/10/25 13:44:32;;;;;;;;;;;;;;;19.28;61.51;102418.03;5008528;28;1406;-49
2021/10/25 13:46:58;;;;;;;;;;;;;;;19.22;60.54;102430.00;5007093;28;1438;-60
2021/10/25 13:49:25;;;;;;;;;;;;;;;19.15;61.38;102423.28;5006896;28;1516;-48
2021/10/25 13:51:51;;;;;;;;;;;;;;;19.12;59.99;102411.91;5007861;28;1545;-60
2021/10/25 13:54:20;;;;;;;;;;;;;;;19.09;60.47;102410.28;5006878;28;1898;-49
2021/10/25 13:56:46;;;;;;;;;;;;;;;19.11;59.82;102427.13;5010687;28;1590;-48
2021/10/25 13:59:13;;;;;;;;;;;;;;;19.07;59.87;102405.00;5001790;28;1857;-59
2021/10/25 14:01:40;;;;;;;;;;;;;;;19.05;59.61;102414.09;5005013;28;1474;-48
2021/10/25 14:04:08;;;;;;;;;;;;;;;19.03;59.75;102403.47;5007517;28;1504;-49
2021/10/25 14:06:35;;;;;;;;;;;;;;;19.04;60.13;102407.03;5010694;28;1430;-57
2021/10/25 14:09:03;;;;;;;;;;;;;;;19.23;59.65;102409.41;5011182;28;1657;-49
2021/10/25 14:11:37;;;;;;;;;;;;;;;19.28;60.20;102405.47;5011280;28;1493;-52
2021/10/25 14:14:11;;;;;;;;;;;;;;;19.26;60.33;102410.09;5006606;28;1966;-57